Rockwall's Hourly Summary for Saturday, July 7, 2018
Hour Temp
(f)
RH
(%)
Solar Rad.
(MJ/m2)
Rainfall
(in)
Wind
(mph)
7/7/2018 12:00 AM 78 73 0 0 1.95
7/7/2018 1:00 AM 77 77 0 0 0.85
7/7/2018 2:00 AM 76 81 0 0 0.7
7/7/2018 3:00 AM 74 85 0 0 0.61
7/7/2018 4:00 AM 73 87 0 0 0.2
7/7/2018 5:00 AM 73 90 0 0 0
7/7/2018 6:00 AM 72 95 0 0 0.02
7/7/2018 7:00 AM 72 93 0.06 0 0.57
7/7/2018 8:00 AM 74 79 0.48 0 1.56
7/7/2018 9:00 AM 77 75 1.15 0 3.19
7/7/2018 10:00 AM 80 70 1.73 0 3.5
7/7/2018 11:00 AM 84 60 2.32 0 2.87
7/7/2018 12:00 PM 87 54 2.45 0 2.4
7/7/2018 1:00 PM 88 51 2.62 0 2.93
7/7/2018 2:00 PM 90 48 3.06 0 2.92
7/7/2018 3:00 PM 91 45 2.2 0 3.35
7/7/2018 4:00 PM 93 40 2.61 0 3.89
7/7/2018 5:00 PM 94 38 2.09 0 4.35
7/7/2018 6:00 PM 91 42 1.49 0 5.99
7/7/2018 7:00 PM 91 42 0.77 0 4.33
7/7/2018 8:00 PM 90 45 0.14 0 3.55
7/7/2018 9:00 PM 88 49 0.03 0 0.59
7/7/2018 10:00 PM 84 54 0 0 3.6
7/7/2018 11:00 PM 82 62 0 0 1.58
Data Summary 82 63 23.20 0.00 2.31